sensor_id;sensor_type;location;lat;lon;timestamp;temperature;humidity
38263;DHT22;24054;50.128;19.730;2023-03-01T00:01:15;21.50;42.50
38263;DHT22;24054;50.128;19.730;2023-03-01T00:03:44;21.50;42.50
38263;DHT22;24054;50.128;19.730;2023-03-01T00:06:11;21.40;42.40
38263;DHT22;24054;50.128;19.730;2023-03-01T00:08:38;21.40;42.40
38263;DHT22;24054;50.128;19.730;2023-03-01T00:11:07;21.40;42.40
38263;DHT22;24054;50.128;19.730;2023-03-01T00:13:35;21.40;42.40
38263;DHT22;24054;50.128;19.730;2023-03-01T00:16:03;21.40;42.40
38263;DHT22;24054;50.128;19.730;2023-03-01T00:18:31;21.40;42.30
38263;DHT22;24054;50.128;19.730;2023-03-01T00:20:59;21.30;42.30
38263;DHT22;24054;50.128;19.730;2023-03-01T00:23:26;21.40;42.30
38263;DHT22;24054;50.128;19.730;2023-03-01T00:25:54;21.30;42.30
38263;DHT22;24054;50.128;19.730;2023-03-01T00:28:21;21.30;42.20
38263;DHT22;24054;50.128;19.730;2023-03-01T00:30:48;21.30;42.20
38263;DHT22;24054;50.128;19.730;2023-03-01T00:33:15;21.30;42.20
38263;DHT22;24054;50.128;19.730;2023-03-01T00:35:42;21.20;42.10
38263;DHT22;24054;50.128;19.730;2023-03-01T00:38:10;21.20;42.00
38263;DHT22;24054;50.128;19.730;2023-03-01T00:40:37;21.20;42.00
38263;DHT22;24054;50.128;19.730;2023-03-01T00:43:04;21.20;42.00
38263;DHT22;24054;50.128;19.730;2023-03-01T00:45:32;21.20;42.00
38263;DHT22;24054;50.128;19.730;2023-03-01T00:47:59;21.20;42.00
38263;DHT22;24054;50.128;19.730;2023-03-01T00:50:26;21.10;41.90
38263;DHT22;24054;50.128;19.730;2023-03-01T00:52:54;21.10;41.80
38263;DHT22;24054;50.128;19.730;2023-03-01T00:55:23;21.10;41.70
38263;DHT22;24054;50.128;19.730;2023-03-01T00:57:50;21.10;41.70
38263;DHT22;24054;50.128;19.730;2023-03-01T01:00:18;21.10;41.60
38263;DHT22;24054;50.128;19.730;2023-03-01T01:02:46;21.00;41.50
38263;DHT22;24054;50.128;19.730;2023-03-01T01:05:13;21.00;41.60
38263;DHT22;24054;50.128;19.730;2023-03-01T01:07:40;21.00;41.50
38263;DHT22;24054;50.128;19.730;2023-03-01T01:10:08;21.00;41.50
38263;DHT22;24054;50.128;19.730;2023-03-01T01:12:44;21.00;41.40
38263;DHT22;24054;50.128;19.730;2023-03-01T01:15:11;20.90;42.00
38263;DHT22;24054;50.128;19.730;2023-03-01T01:17:40;20.90;41.40
38263;DHT22;24054;50.128;19.730;2023-03-01T01:20:08;21.00;41.40
38263;DHT22;24054;50.128;19.730;2023-03-01T01:22:36;20.90;41.40
38263;DHT22;24054;50.128;19.730;2023-03-01T01:25:03;20.90;41.40
38263;DHT22;24054;50.128;19.730;2023-03-01T01:27:33;20.90;41.40
38263;DHT22;24054;50.128;19.730;2023-03-01T01:30:02;20.90;41.30
38263;DHT22;24054;50.128;19.730;2023-03-01T01:32:29;20.90;41.30
38263;DHT22;24054;50.128;19.730;2023-03-01T01:34:56;20.90;41.20
38263;DHT22;24054;50.128;19.730;2023-03-01T01:37:23;20.80;41.20
38263;DHT22;24054;50.128;19.730;2023-03-01T01:39:57;20.80;41.10
38263;DHT22;24054;50.128;19.730;2023-03-01T01:42:24;20.80;41.10
38263;DHT22;24054;50.128;19.730;2023-03-01T01:45:27;20.80;41.00
38263;DHT22;24054;50.128;19.730;2023-03-01T01:47:57;20.80;41.70
38263;DHT22;24054;50.128;19.730;2023-03-01T01:50:25;20.80;40.90
38263;DHT22;24054;50.128;19.730;2023-03-01T01:52:59;20.70;40.90
38263;DHT22;24054;50.128;19.730;2023-03-01T01:55:27;20.70;40.80
38263;DHT22;24054;50.128;19.730;2023-03-01T01:57:56;20.70;40.80
38263;DHT22;24054;50.128;19.730;2023-03-01T02:00:27;20.70;40.80
38263;DHT22;24054;50.128;19.730;2023-03-01T02:02:56;20.70;40.80
38263;DHT22;24054;50.128;19.730;2023-03-01T02:05:28;20.70;40.80
38263;DHT22;24054;50.128;19.730;2023-03-01T02:07:57;20.70;40.80
38263;DHT22;24054;50.128;19.730;2023-03-01T02:10:25;20.70;40.80
38263;DHT22;24054;50.128;19.730;2023-03-01T02:12:54;20.60;40.60
38263;DHT22;24054;50.128;19.730;2023-03-01T02:15:21;20.60;40.60
38263;DHT22;24054;50.128;19.730;2023-03-01T02:17:50;20.60;41.30
38263;DHT22;24054;50.128;19.730;2023-03-01T02:20:26;20.60;40.70
38263;DHT22;24054;50.128;19.730;2023-03-01T02:22:55;20.60;40.70
38263;DHT22;24054;50.128;19.730;2023-03-01T02:25:32;20.60;40.70
38263;DHT22;24054;50.128;19.730;2023-03-01T02:28:08;20.60;40.70
38263;DHT22;24054;50.128;19.730;2023-03-01T02:30:39;20.60;40.70
38263;DHT22;24054;50.128;19.730;2023-03-01T02:33:27;20.60;40.60
38263;DHT22;24054;50.128;19.730;2023-03-01T02:35:54;20.50;40.60
38263;DHT22;24054;50.128;19.730;2023-03-01T02:38:22;20.50;40.50
38263;DHT22;24054;50.128;19.730;2023-03-01T02:40:50;20.50;40.50
38263;DHT22;24054;50.128;19.730;2023-03-01T02:43:19;20.50;40.50
38263;DHT22;24054;50.128;19.730;2023-03-01T02:45:52;20.50;40.50
38263;DHT22;24054;50.128;19.730;2023-03-01T02:48:20;20.50;40.50
38263;DHT22;24054;50.128;19.730;2023-03-01T02:50:58;20.50;40.40
38263;DHT22;24054;50.128;19.730;2023-03-01T02:53:36;20.40;40.40
38263;DHT22;24054;50.128;19.730;2023-03-01T02:56:05;20.40;40.40
38263;DHT22;24054;50.128;19.730;2023-03-01T02:58:38;20.40;40.30
38263;DHT22;24054;50.128;19.730;2023-03-01T03:01:12;20.40;40.30
38263;DHT22;24054;50.128;19.730;2023-03-01T03:03:42;20.40;40.30
38263;DHT22;24054;50.128;19.730;2023-03-01T03:06:09;20.40;40.30
38263;DHT22;24054;50.128;19.730;2023-03-01T03:08:36;20.40;40.30
38263;DHT22;24054;50.128;19.730;2023-03-01T03:11:03;20.40;40.20
38263;DHT22;24054;50.128;19.730;2023-03-01T03:13:30;20.30;40.20
38263;DHT22;24054;50.128;19.730;2023-03-01T03:15:58;20.30;40.20
38263;DHT22;24054;50.128;19.730;2023-03-01T03:18:26;20.40;40.20
38263;DHT22;24054;50.128;19.730;2023-03-01T03:20:53;20.30;40.20
38263;DHT22;24054;50.128;19.730;2023-03-01T03:23:21;20.30;40.10
38263;DHT22;24054;50.128;19.730;2023-03-01T03:25:49;20.30;40.10
38263;DHT22;24054;50.128;19.730;2023-03-01T03:28:16;20.30;40.10
38263;DHT22;24054;50.128;19.730;2023-03-01T03:30:43;20.30;40.10
38263;DHT22;24054;50.128;19.730;2023-03-01T03:33:12;20.20;40.00
38263;DHT22;24054;50.128;19.730;2023-03-01T03:35:42;20.30;40.10
38263;DHT22;24054;50.128;19.730;2023-03-01T03:38:11;20.20;40.00
38263;DHT22;24054;50.128;19.730;2023-03-01T03:40:44;20.20;40.10
38263;DHT22;24054;50.128;19.730;2023-03-01T03:43:12;20.20;40.00
38263;DHT22;24054;50.128;19.730;2023-03-01T03:45:40;20.20;40.00
38263;DHT22;24054;50.128;19.730;2023-03-01T03:48:08;20.20;40.10
38263;DHT22;24054;50.128;19.730;2023-03-01T03:50:36;20.20;40.00
38263;DHT22;24054;50.128;19.730;2023-03-01T03:53:07;20.20;39.90
38263;DHT22;24054;50.128;19.730;2023-03-01T03:55:34;20.20;40.00
38263;DHT22;24054;50.128;19.730;2023-03-01T03:58:05;20.20;39.90
38263;DHT22;24054;50.128;19.730;2023-03-01T04:00:34;20.20;39.90
38263;DHT22;24054;50.128;19.730;2023-03-01T04:03:01;20.20;39.90
38263;DHT22;24054;50.128;19.730;2023-03-01T04:05:29;20.10;39.90
38263;DHT22;24054;50.128;19.730;2023-03-01T04:07:56;20.10;39.90
38263;DHT22;24054;50.128;19.730;2023-03-01T04:10:30;20.10;39.90
38263;DHT22;24054;50.128;19.730;2023-03-01T04:12:57;20.10;39.80
38263;DHT22;24054;50.128;19.730;2023-03-01T04:15:25;20.10;39.80
38263;DHT22;24054;50.128;19.730;2023-03-01T04:17:54;20.10;39.90
38263;DHT22;24054;50.128;19.730;2023-03-01T04:20:23;20.10;39.80
38263;DHT22;24054;50.128;19.730;2023-03-01T04:22:52;20.00;39.80
38263;DHT22;24054;50.128;19.730;2023-03-01T04:25:19;20.00;39.70
38263;DHT22;24054;50.128;19.730;2023-03-01T04:27:48;20.00;39.70
38263;DHT22;24054;50.128;19.730;2023-03-01T04:30:15;20.00;39.70
38263;DHT22;24054;50.128;19.730;2023-03-01T04:32:42;20.00;39.70
38263;DHT22;24054;50.128;19.730;2023-03-01T04:35:09;20.00;39.70
38263;DHT22;24054;50.128;19.730;2023-03-01T04:37:36;20.00;39.70
38263;DHT22;24054;50.128;19.730;2023-03-01T04:40:04;20.00;39.70
38263;DHT22;24054;50.128;19.730;2023-03-01T04:42:41;20.00;39.70
38263;DHT22;24054;50.128;19.730;2023-03-01T04:45:10;20.00;39.70
38263;DHT22;24054;50.128;19.730;2023-03-01T04:47:40;20.00;39.70
38263;DHT22;24054;50.128;19.730;2023-03-01T04:50:08;20.00;39.70
38263;DHT22;24054;50.128;19.730;2023-03-01T04:52:35;20.00;39.70
38263;DHT22;24054;50.128;19.730;2023-03-01T04:55:02;20.00;39.70
38263;DHT22;24054;50.128;19.730;2023-03-01T04:57:30;19.90;39.70
38263;DHT22;24054;50.128;19.730;2023-03-01T04:59:57;19.90;39.60
38263;DHT22;24054;50.128;19.730;2023-03-01T05:02:26;19.90;39.80
38263;DHT22;24054;50.128;19.730;2023-03-01T05:04:53;19.90;39.70
38263;DHT22;24054;50.128;19.730;2023-03-01T05:07:23;19.90;39.60
38263;DHT22;24054;50.128;19.730;2023-03-01T05:09:51;19.90;39.60
38263;DHT22;24054;50.128;19.730;2023-03-01T05:12:19;19.90;39.60
38263;DHT22;24054;50.128;19.730;2023-03-01T05:14:46;19.90;39.60
38263;DHT22;24054;50.128;19.730;2023-03-01T05:17:13;19.80;39.50
38263;DHT22;24054;50.128;19.730;2023-03-01T05:19:42;19.80;39.50
38263;DHT22;24054;50.128;19.730;2023-03-01T05:22:09;19.80;39.60
38263;DHT22;24054;50.128;19.730;2023-03-01T05:24:36;19.80;39.50
38263;DHT22;24054;50.128;19.730;2023-03-01T05:27:05;19.80;39.60
38263;DHT22;24054;50.128;19.730;2023-03-01T05:29:32;19.80;39.50
38263;DHT22;24054;50.128;19.730;2023-03-01T05:32:02;19.80;39.50
38263;DHT22;24054;50.128;19.730;2023-03-01T05:34:29;19.80;39.50
38263;DHT22;24054;50.128;19.730;2023-03-01T05:36:58;19.70;39.60
38263;DHT22;24054;50.128;19.730;2023-03-01T05:39:27;19.80;39.50
38263;DHT22;24054;50.128;19.730;2023-03-01T05:41:55;19.80;39.50
38263;DHT22;24054;50.128;19.730;2023-03-01T05:44:23;19.70;39.40
38263;DHT22;24054;50.128;19.730;2023-03-01T05:46:51;19.70;39.40
38263;DHT22;24054;50.128;19.730;2023-03-01T05:49:18;19.70;39.40
38263;DHT22;24054;50.128;19.730;2023-03-01T05:51:48;19.70;39.40
38263;DHT22;24054;50.128;19.730;2023-03-01T05:54:17;19.70;39.40
38263;DHT22;24054;50.128;19.730;2023-03-01T05:56:44;19.70;39.40
38263;DHT22;24054;50.128;19.730;2023-03-01T05:59:11;19.70;39.40
38263;DHT22;24054;50.128;19.730;2023-03-01T06:01:39;19.70;39.40
38263;DHT22;24054;50.128;19.730;2023-03-01T06:04:06;19.70;39.40
38263;DHT22;24054;50.128;19.730;2023-03-01T06:06:34;19.70;39.40
38263;DHT22;24054;50.128;19.730;2023-03-01T06:09:03;19.60;39.40
38263;DHT22;24054;50.128;19.730;2023-03-01T06:11:31;19.60;39.30
38263;DHT22;24054;50.128;19.730;2023-03-01T06:13:59;19.70;39.50
38263;DHT22;24054;50.128;19.730;2023-03-01T06:16:26;19.70;39.80
38263;DHT22;24054;50.128;19.730;2023-03-01T06:18:53;19.70;40.10
38263;DHT22;24054;50.128;19.730;2023-03-01T06:21:20;19.70;40.20
38263;DHT22;24054;50.128;19.730;2023-03-01T06:23:47;19.70;40.20
38263;DHT22;24054;50.128;19.730;2023-03-01T06:26:14;19.80;40.30
38263;DHT22;24054;50.128;19.730;2023-03-01T06:28:43;19.80;40.50
38263;DHT22;24054;50.128;19.730;2023-03-01T06:31:11;19.90;40.50
38263;DHT22;24054;50.128;19.730;2023-03-01T06:33:38;20.00;40.80
38263;DHT22;24054;50.128;19.730;2023-03-01T06:36:06;20.00;41.00
38263;DHT22;24054;50.128;19.730;2023-03-01T06:38:33;20.10;41.10
38263;DHT22;24054;50.128;19.730;2023-03-01T06:41:00;20.20;41.20
38263;DHT22;24054;50.128;19.730;2023-03-01T06:43:27;20.30;41.20
38263;DHT22;24054;50.128;19.730;2023-03-01T06:45:56;20.40;41.30
38263;DHT22;24054;50.128;19.730;2023-03-01T06:48:23;20.40;41.30
38263;DHT22;24054;50.128;19.730;2023-03-01T06:50:50;20.50;41.90
38263;DHT22;24054;50.128;19.730;2023-03-01T06:53:16;20.60;42.10
38263;DHT22;24054;50.128;19.730;2023-03-01T06:55:44;20.60;43.00
38263;DHT22;24054;50.128;19.730;2023-03-01T06:58:11;20.70;44.00
38263;DHT22;24054;50.128;19.730;2023-03-01T07:00:37;20.80;44.40
38263;DHT22;24054;50.128;19.730;2023-03-01T07:03:08;20.90;43.70
38263;DHT22;24054;50.128;19.730;2023-03-01T07:05:35;21.00;43.50
38263;DHT22;24054;50.128;19.730;2023-03-01T07:08:03;21.00;43.30
38263;DHT22;24054;50.128;19.730;2023-03-01T07:10:30;21.10;43.10
38263;DHT22;24054;50.128;19.730;2023-03-01T07:12:57;21.10;42.90
38263;DHT22;24054;50.128;19.730;2023-03-01T07:15:26;21.20;42.70
38263;DHT22;24054;50.128;19.730;2023-03-01T07:17:53;21.30;42.90
38263;DHT22;24054;50.128;19.730;2023-03-01T07:20:21;21.30;42.60
38263;DHT22;24054;50.128;19.730;2023-03-01T07:22:50;21.40;42.60
38263;DHT22;24054;50.128;19.730;2023-03-01T07:25:18;21.40;42.30
38263;DHT22;24054;50.128;19.730;2023-03-01T07:27:49;21.50;42.20
38263;DHT22;24054;50.128;19.730;2023-03-01T07:30:18;21.60;42.00
38263;DHT22;24054;50.128;19.730;2023-03-01T07:32:46;21.70;41.90
38263;DHT22;24054;50.128;19.730;2023-03-01T07:35:13;21.70;41.70
38263;DHT22;24054;50.128;19.730;2023-03-01T07:37:43;21.80;41.60
38263;DHT22;24054;50.128;19.730;2023-03-01T07:40:10;21.90;41.50
38263;DHT22;24054;50.128;19.730;2023-03-01T07:42:38;21.90;41.50
38263;DHT22;24054;50.128;19.730;2023-03-01T07:45:06;22.00;41.70
38263;DHT22;24054;50.128;19.730;2023-03-01T07:47:33;22.00;41.40
38263;DHT22;24054;50.128;19.730;2023-03-01T07:50:01;22.00;42.20
38263;DHT22;24054;50.128;19.730;2023-03-01T07:52:28;22.10;41.90
38263;DHT22;24054;50.128;19.730;2023-03-01T07:54:57;22.10;42.10
38263;DHT22;24054;50.128;19.730;2023-03-01T07:57:29;22.20;42.90
38263;DHT22;24054;50.128;19.730;2023-03-01T07:59:57;22.20;42.50
38263;DHT22;24054;50.128;19.730;2023-03-01T08:02:24;22.20;42.70
38263;DHT22;24054;50.128;19.730;2023-03-01T08:04:51;22.30;43.00
38263;DHT22;24054;50.128;19.730;2023-03-01T08:07:19;22.30;43.20
38263;DHT22;24054;50.128;19.730;2023-03-01T08:09:46;22.30;43.20
38263;DHT22;24054;50.128;19.730;2023-03-01T08:12:15;22.40;43.40
38263;DHT22;24054;50.128;19.730;2023-03-01T08:14:45;22.50;43.60
38263;DHT22;24054;50.128;19.730;2023-03-01T08:17:13;22.50;43.60
38263;DHT22;24054;50.128;19.730;2023-03-01T08:19:42;22.60;43.80
38263;DHT22;24054;50.128;19.730;2023-03-01T08:22:09;22.60;43.70
38263;DHT22;24054;50.128;19.730;2023-03-01T08:24:36;22.60;43.80
38263;DHT22;24054;50.128;19.730;2023-03-01T08:27:06;22.70;43.80
38263;DHT22;24054;50.128;19.730;2023-03-01T08:29:34;22.80;43.90
38263;DHT22;24054;50.128;19.730;2023-03-01T08:32:01;22.80;43.90
38263;DHT22;24054;50.128;19.730;2023-03-01T08:34:29;22.90;43.90
38263;DHT22;24054;50.128;19.730;2023-03-01T08:36:56;22.90;43.90
38263;DHT22;24054;50.128;19.730;2023-03-01T08:39:23;22.90;44.00
38263;DHT22;24054;50.128;19.730;2023-03-01T08:41:50;23.00;43.90
38263;DHT22;24054;50.128;19.730;2023-03-01T08:44:18;23.00;43.90
38263;DHT22;24054;50.128;19.730;2023-03-01T08:46:47;23.10;43.80
38263;DHT22;24054;50.128;19.730;2023-03-01T08:49:18;23.10;44.00
38263;DHT22;24054;50.128;19.730;2023-03-01T08:51:46;23.10;43.90
38263;DHT22;24054;50.128;19.730;2023-03-01T08:54:16;23.20;44.00
38263;DHT22;24054;50.128;19.730;2023-03-01T08:56:44;23.20;43.90
38263;DHT22;24054;50.128;19.730;2023-03-01T08:59:12;23.20;43.80
38263;DHT22;24054;50.128;19.730;2023-03-01T09:01:39;23.30;43.80
38263;DHT22;24054;50.128;19.730;2023-03-01T09:04:10;23.30;43.70
38263;DHT22;24054;50.128;19.730;2023-03-01T09:06:37;23.30;43.70
38263;DHT22;24054;50.128;19.730;2023-03-01T09:09:05;23.30;43.70
38263;DHT22;24054;50.128;19.730;2023-03-01T09:11:33;23.40;43.70
38263;DHT22;24054;50.128;19.730;2023-03-01T09:14:00;23.40;43.30
38263;DHT22;24054;50.128;19.730;2023-03-01T09:16:27;23.40;43.00
38263;DHT22;24054;50.128;19.730;2023-03-01T09:18:55;23.50;42.90
38263;DHT22;24054;50.128;19.730;2023-03-01T09:21:23;23.60;42.80
38263;DHT22;24054;50.128;19.730;2023-03-01T09:23:51;23.60;42.60
38263;DHT22;24054;50.128;19.730;2023-03-01T09:26:19;23.70;42.50
38263;DHT22;24054;50.128;19.730;2023-03-01T09:28:47;23.70;42.40
38263;DHT22;24054;50.128;19.730;2023-03-01T09:31:15;23.80;42.20
38263;DHT22;24054;50.128;19.730;2023-03-01T09:33:45;23.90;42.20
38263;DHT22;24054;50.128;19.730;2023-03-01T09:36:14;23.90;42.00
38263;DHT22;24054;50.128;19.730;2023-03-01T09:38:43;24.00;42.10
38263;DHT22;24054;50.128;19.730;2023-03-01T09:41:18;24.00;41.90
38263;DHT22;24054;50.128;19.730;2023-03-01T09:43:51;24.00;42.70
38263;DHT22;24054;50.128;19.730;2023-03-01T09:46:22;24.10;42.20
38263;DHT22;24054;50.128;19.730;2023-03-01T09:48:54;24.10;42.30
38263;DHT22;24054;50.128;19.730;2023-03-01T09:51:26;24.10;42.40
38263;DHT22;24054;50.128;19.730;2023-03-01T09:53:55;24.10;42.50
38263;DHT22;24054;50.128;19.730;2023-03-01T09:56:33;24.10;42.50
38263;DHT22;24054;50.128;19.730;2023-03-01T09:59:13;24.10;42.60
38263;DHT22;24054;50.128;19.730;2023-03-01T10:01:47;24.10;42.60
38263;DHT22;24054;50.128;19.730;2023-03-01T10:04:36;24.10;42.60
38263;DHT22;24054;50.128;19.730;2023-03-01T10:07:21;24.10;42.70
38263;DHT22;24054;50.128;19.730;2023-03-01T10:09:50;24.10;42.70
38263;DHT22;24054;50.128;19.730;2023-03-01T10:12:20;24.20;42.70
38263;DHT22;24054;50.128;19.730;2023-03-01T10:14:56;24.20;42.70
38263;DHT22;24054;50.128;19.730;2023-03-01T10:17:30;24.20;42.70
38263;DHT22;24054;50.128;19.730;2023-03-01T10:20:14;24.20;42.60
38263;DHT22;24054;50.128;19.730;2023-03-01T10:22:42;24.20;42.60
38263;DHT22;24054;50.128;19.730;2023-03-01T10:25:21;24.20;42.40
38263;DHT22;24054;50.128;19.730;2023-03-01T10:27:53;24.20;42.00
38263;DHT22;24054;50.128;19.730;2023-03-01T10:30:26;24.20;41.20
38263;DHT22;24054;50.128;19.730;2023-03-01T10:32:57;24.30;40.50
38263;DHT22;24054;50.128;19.730;2023-03-01T10:35:27;24.30;39.70
38263;DHT22;24054;50.128;19.730;2023-03-01T10:38:00;24.30;39.60
38263;DHT22;24054;50.128;19.730;2023-03-01T10:40:30;24.30;39.50
38263;DHT22;24054;50.128;19.730;2023-03-01T10:42:58;24.30;39.70
38263;DHT22;24054;50.128;19.730;2023-03-01T10:45:36;24.30;40.10
38263;DHT22;24054;50.128;19.730;2023-03-01T10:48:08;24.20;39.70
38263;DHT22;24054;50.128;19.730;2023-03-01T10:50:37;24.40;39.70
38263;DHT22;24054;50.128;19.730;2023-03-01T10:53:21;24.30;39.70
38263;DHT22;24054;50.128;19.730;2023-03-01T10:55:58;24.40;39.60
38263;DHT22;24054;50.128;19.730;2023-03-01T10:58:26;24.40;39.60
38263;DHT22;24054;50.128;19.730;2023-03-01T11:00:54;24.40;39.60
38263;DHT22;24054;50.128;19.730;2023-03-01T11:03:24;24.50;39.50
38263;DHT22;24054;50.128;19.730;2023-03-01T11:05:57;24.60;39.50
38263;DHT22;24054;50.128;19.730;2023-03-01T11:08:39;24.70;39.50
38263;DHT22;24054;50.128;19.730;2023-03-01T11:11:30;24.70;39.40
38263;DHT22;24054;50.128;19.730;2023-03-01T11:13:59;24.80;39.40
38263;DHT22;24054;50.128;19.730;2023-03-01T11:16:33;24.90;39.30
38263;DHT22;24054;50.128;19.730;2023-03-01T11:19:19;25.00;39.30
38263;DHT22;24054;50.128;19.730;2023-03-01T11:21:55;25.10;39.20
38263;DHT22;24054;50.128;19.730;2023-03-01T11:24:29;25.20;39.20
38263;DHT22;24054;50.128;19.730;2023-03-01T11:27:01;25.20;39.10
38263;DHT22;24054;50.128;19.730;2023-03-01T11:29:33;25.30;39.10
38263;DHT22;24054;50.128;19.730;2023-03-01T11:32:06;25.40;39.00
38263;DHT22;24054;50.128;19.730;2023-03-01T11:34:42;25.40;39.00
38263;DHT22;24054;50.128;19.730;2023-03-01T11:37:21;25.50;38.90
38263;DHT22;24054;50.128;19.730;2023-03-01T11:39:56;25.60;38.90
38263;DHT22;24054;50.128;19.730;2023-03-01T11:42:32;25.60;38.80
38263;DHT22;24054;50.128;19.730;2023-03-01T11:45:05;25.70;38.80
38263;DHT22;24054;50.128;19.730;2023-03-01T11:50:28;25.80;38.70
38263;DHT22;24054;50.128;19.730;2023-03-01T11:55:59;25.90;38.60
38263;DHT22;24054;50.128;19.730;2023-03-01T11:58:52;26.00;38.60
38263;DHT22;24054;50.128;19.730;2023-03-01T12:01:40;26.10;38.60
38263;DHT22;24054;50.128;19.730;2023-03-01T12:04:45;26.10;38.60
38263;DHT22;24054;50.128;19.730;2023-03-01T12:07:19;26.20;38.60
38263;DHT22;24054;50.128;19.730;2023-03-01T12:09:58;26.20;38.40
38263;DHT22;24054;50.128;19.730;2023-03-01T12:12:36;26.30;38.40
38263;DHT22;24054;50.128;19.730;2023-03-01T12:15:34;26.30;38.50
38263;DHT22;24054;50.128;19.730;2023-03-01T12:18:30;26.30;38.50
38263;DHT22;24054;50.128;19.730;2023-03-01T12:21:13;26.30;38.40
38263;DHT22;24054;50.128;19.730;2023-03-01T12:24:10;26.30;38.40
38263;DHT22;24054;50.128;19.730;2023-03-01T12:26:49;26.30;38.40
38263;DHT22;24054;50.128;19.730;2023-03-01T12:29:25;26.40;38.40
38263;DHT22;24054;50.128;19.730;2023-03-01T12:32:24;26.40;38.50
38263;DHT22;24054;50.128;19.730;2023-03-01T12:35:26;26.40;38.50
38263;DHT22;24054;50.128;19.730;2023-03-01T12:38:02;26.40;38.50
38263;DHT22;24054;50.128;19.730;2023-03-01T12:40:43;26.40;38.50
38263;DHT22;24054;50.128;19.730;2023-03-01T12:43:22;26.30;38.40
38263;DHT22;24054;50.128;19.730;2023-03-01T12:46:10;26.30;38.50
38263;DHT22;24054;50.128;19.730;2023-03-01T12:48:46;26.30;38.60
38263;DHT22;24054;50.128;19.730;2023-03-01T12:51:17;26.20;38.50
38263;DHT22;24054;50.128;19.730;2023-03-01T12:53:48;26.10;38.60
38263;DHT22;24054;50.128;19.730;2023-03-01T12:56:18;26.00;38.70
38263;DHT22;24054;50.128;19.730;2023-03-01T12:58:53;25.90;38.80
38263;DHT22;24054;50.128;19.730;2023-03-01T13:01:30;25.80;38.80
38263;DHT22;24054;50.128;19.730;2023-03-01T13:04:05;25.70;38.90
38263;DHT22;24054;50.128;19.730;2023-03-01T13:06:37;25.60;39.20
38263;DHT22;24054;50.128;19.730;2023-03-01T13:09:14;25.50;39.10
38263;DHT22;24054;50.128;19.730;2023-03-01T13:11:45;25.50;39.20
38263;DHT22;24054;50.128;19.730;2023-03-01T13:14:44;25.40;39.30
38263;DHT22;24054;50.128;19.730;2023-03-01T13:17:32;25.30;39.30
38263;DHT22;24054;50.128;19.730;2023-03-01T13:20:01;25.20;39.30
38263;DHT22;24054;50.128;19.730;2023-03-01T13:22:31;25.20;39.60
38263;DHT22;24054;50.128;19.730;2023-03-01T13:25:13;25.10;39.50
38263;DHT22;24054;50.128;19.730;2023-03-01T13:27:40;25.10;39.70
38263;DHT22;24054;50.128;19.730;2023-03-01T13:30:39;25.00;39.60
38263;DHT22;24054;50.128;19.730;2023-03-01T13:33:45;25.00;39.90
38263;DHT22;24054;50.128;19.730;2023-03-01T13:39:31;24.80;39.80
38263;DHT22;24054;50.128;19.730;2023-03-01T13:42:29;24.80;39.90
38263;DHT22;24054;50.128;19.730;2023-03-01T13:44:58;24.80;39.90
38263;DHT22;24054;50.128;19.730;2023-03-01T13:47:27;24.70;40.00
38263;DHT22;24054;50.128;19.730;2023-03-01T13:49:57;24.70;40.10
38263;DHT22;24054;50.128;19.730;2023-03-01T13:52:36;24.60;40.20
38263;DHT22;24054;50.128;19.730;2023-03-01T13:55:17;24.70;40.50
38263;DHT22;24054;50.128;19.730;2023-03-01T13:57:47;24.60;40.50
38263;DHT22;24054;50.128;19.730;2023-03-01T14:00:31;24.60;40.60
38263;DHT22;24054;50.128;19.730;2023-03-01T14:03:08;24.50;40.60
38263;DHT22;24054;50.128;19.730;2023-03-01T14:05:36;24.50;40.70
38263;DHT22;24054;50.128;19.730;2023-03-01T14:08:19;24.50;40.80
38263;DHT22;24054;50.128;19.730;2023-03-01T14:10:58;24.50;39.40
38263;DHT22;24054;50.128;19.730;2023-03-01T14:13:35;24.40;39.60
38263;DHT22;24054;50.128;19.730;2023-03-01T14:16:20;24.40;40.00
38263;DHT22;24054;50.128;19.730;2023-03-01T14:18:58;24.40;40.20
38263;DHT22;24054;50.128;19.730;2023-03-01T14:21:30;24.30;40.20
38263;DHT22;24054;50.128;19.730;2023-03-01T14:23:58;24.30;40.40
38263;DHT22;24054;50.128;19.730;2023-03-01T14:26:28;24.30;40.50
38263;DHT22;24054;50.128;19.730;2023-03-01T14:28:57;24.20;40.40
38263;DHT22;24054;50.128;19.730;2023-03-01T14:31:35;24.20;40.50
38263;DHT22;24054;50.128;19.730;2023-03-01T14:34:04;24.20;40.50
38263;DHT22;24054;50.128;19.730;2023-03-01T14:36:33;24.10;40.60
38263;DHT22;24054;50.128;19.730;2023-03-01T14:39:01;24.10;40.60
38263;DHT22;24054;50.128;19.730;2023-03-01T14:41:36;24.10;40.60
38263;DHT22;24054;50.128;19.730;2023-03-01T14:44:06;24.00;40.60
38263;DHT22;24054;50.128;19.730;2023-03-01T14:46:36;24.00;40.70
38263;DHT22;24054;50.128;19.730;2023-03-01T14:49:06;24.00;40.70
38263;DHT22;24054;50.128;19.730;2023-03-01T14:51:39;23.90;40.70
38263;DHT22;24054;50.128;19.730;2023-03-01T14:54:20;23.90;40.70
38263;DHT22;24054;50.128;19.730;2023-03-01T14:56:52;23.90;40.70
38263;DHT22;24054;50.128;19.730;2023-03-01T14:59:22;23.80;40.60
38263;DHT22;24054;50.128;19.730;2023-03-01T15:01:51;23.90;40.70
38263;DHT22;24054;50.128;19.730;2023-03-01T15:04:21;23.80;40.70
38263;DHT22;24054;50.128;19.730;2023-03-01T15:06:51;23.80;40.70
38263;DHT22;24054;50.128;19.730;2023-03-01T15:09:19;23.70;40.90
38263;DHT22;24054;50.128;19.730;2023-03-01T15:11:46;23.70;41.10
38263;DHT22;24054;50.128;19.730;2023-03-01T15:14:36;23.70;41.30
38263;DHT22;24054;50.128;19.730;2023-03-01T15:17:26;23.60;41.40
38263;DHT22;24054;50.128;19.730;2023-03-01T15:19:55;23.60;41.60
38263;DHT22;24054;50.128;19.730;2023-03-01T15:22:22;23.60;41.90
38263;DHT22;24054;50.128;19.730;2023-03-01T15:24:51;23.60;41.90
38263;DHT22;24054;50.128;19.730;2023-03-01T15:27:21;23.60;42.10
38263;DHT22;24054;50.128;19.730;2023-03-01T15:29:52;23.50;42.20
38263;DHT22;24054;50.128;19.730;2023-03-01T15:32:27;23.50;42.40
38263;DHT22;24054;50.128;19.730;2023-03-01T15:34:54;23.40;42.40
38263;DHT22;24054;50.128;19.730;2023-03-01T15:37:44;23.40;42.50
38263;DHT22;24054;50.128;19.730;2023-03-01T15:40:19;23.40;42.70
38263;DHT22;24054;50.128;19.730;2023-03-01T15:42:49;23.40;42.80
38263;DHT22;24054;50.128;19.730;2023-03-01T15:45:28;23.30;42.90
38263;DHT22;24054;50.128;19.730;2023-03-01T15:47:56;23.30;42.80
38263;DHT22;24054;50.128;19.730;2023-03-01T15:50:26;23.30;43.00